Time;durP1;ratioP1;P1;durP2;ratioP2;P2;SDS_P1;SDS_P2;PMS_P1;PMS_P2;Temp;Humidity;BMP_temperature;BMP_pressure;BME280_temperature;BME280_humidity;BME280_pressure;Samples;Min_cycle;Max_cycle;Signal;HPM_P1;HPM_P2
2022/08/07 00:01:19;;;;;;;0.43;0.43;;;;;;;28.54;38.57;94807.09;5050113;28;20296;-68
2022/08/07 00:04:06;;;;;;;1.20;0.97;;;;;;;28.51;38.56;94807.81;5049883;28;20188;-68
2022/08/07 00:06:35;;;;;;;1.97;1.10;;;;;;;28.52;38.63;94808.63;5038794;28;20296;-65
2022/08/07 00:09:12;;;;;;;1.83;1.47;;;;;;;28.50;38.41;94814.34;5048126;28;20283;-67
2022/08/07 00:11:47;;;;;;;1.63;1.10;;;;;;;28.37;38.36;94809.59;5049316;28;20235;-65
2022/08/07 00:14:25;;;;;;;1.07;0.97;;;;;;;28.42;38.07;94812.75;5049403;28;20249;-66
2022/08/07 00:17:00;;;;;;;1.67;1.57;;;;;;;28.23;38.85;94810.22;5049913;28;20212;-64
2022/08/07 00:19:30;;;;;;;0.67;0.67;;;;;;;28.34;38.19;94811.13;5049753;28;20256;-65
2022/08/07 00:22:18;;;;;;;0.57;0.53;;;;;;;28.25;37.95;94807.94;5049061;28;20203;-67
2022/08/07 00:25:08;;;;;;;0.40;0.40;;;;;;;28.15;38.95;94805.91;5050440;28;20188;-65
2022/08/07 00:27:42;;;;;;;0.93;0.57;;;;;;;28.24;37.64;94808.31;5033384;28;20258;-67
2022/08/07 00:30:20;;;;;;;1.00;1.00;;;;;;;28.01;38.46;94802.28;5047440;28;20200;-68
2022/08/07 00:32:58;;;;;;;0.10;0.10;;;;;;;28.23;38.00;94815.63;5045817;28;20205;-67
2022/08/07 00:35:27;;;;;;;0.60;0.60;;;;;;;27.93;38.32;94812.97;5028238;28;20207;-67
2022/08/07 00:37:55;;;;;;;0.20;0.20;;;;;;;27.48;39.14;94807.72;5046353;28;20566;-65
2022/08/07 00:40:22;;;;;;;0.87;0.80;;;;;;;27.76;38.29;94813.50;5038755;28;20196;-67
2022/08/07 00:43:10;;;;;;;0.63;0.63;;;;;;;27.81;38.70;94815.06;5046880;28;20207;-64
2022/08/07 00:45:59;;;;;;;0.80;0.80;;;;;;;27.94;39.61;94819.91;5049285;28;20294;-67
2022/08/07 00:48:28;;;;;;;0.80;0.60;;;;;;;27.96;39.46;94812.25;5033962;28;20285;-66
2022/08/07 00:50:59;;;;;;;0.60;0.60;;;;;;;27.98;39.29;94803.78;5035668;28;20211;-66
2022/08/07 00:53:26;;;;;;;2.80;1.27;;;;;;;27.86;39.38;94812.09;5046108;28;20295;-64
2022/08/07 00:56:14;;;;;;;0.40;0.40;;;;;;;27.93;38.99;94812.19;5049101;28;20223;-67
2022/08/07 00:58:42;;;;;;;0.97;0.97;;;;;;;28.01;39.88;94813.81;5034253;28;20259;-66
2022/08/07 01:01:17;;;;;;;0.90;0.40;;;;;;;28.02;39.33;94810.00;5039156;28;20204;-65
2022/08/07 01:03:45;;;;;;;0.70;0.70;;;;;;;28.01;39.29;94819.19;5044939;28;20193;-66
2022/08/07 01:06:29;;;;;;;2.37;0.83;;;;;;;27.93;38.96;94806.81;5047626;28;20192;-67
2022/08/07 01:08:57;;;;;;;0.50;0.50;;;;;;;27.88;38.95;94809.81;5048982;28;20228;-68
2022/08/07 01:11:28;;;;;;;0.70;0.70;;;;;;;27.70;39.44;94819.59;5049057;28;20209;-66
2022/08/07 01:14:15;;;;;;;1.27;1.17;;;;;;;27.88;39.43;94818.63;5033858;28;20197;-68
2022/08/07 01:16:44;;;;;;;1.67;1.03;;;;;;;27.61;39.81;94827.16;5037398;28;20212;-63
2022/08/07 01:19:16;;;;;;;0.70;0.70;;;;;;;27.59;39.81;94832.13;5047331;28;20204;-69
2022/08/07 01:21:51;;;;;;;0.50;0.50;;;;;;;27.62;39.95;94821.41;5047643;28;20201;-66
2022/08/07 01:24:21;;;;;;;0.30;0.30;;;;;;;27.70;38.95;94827.66;5044410;28;20225;-63
2022/08/07 01:26:51;;;;;;;0.63;0.63;;;;;;;27.63;39.07;94835.63;5037538;28;20262;-66
2022/08/07 01:29:25;;;;;;;0.93;0.40;;;;;;;27.65;39.53;94828.75;5047467;28;20214;-64
2022/08/07 01:31:55;;;;;;;0.30;0.30;;;;;;;27.35;39.53;94808.31;5031159;28;20733;-65
2022/08/07 01:34:31;;;;;;;0.27;0.27;;;;;;;27.53;39.47;94826.28;5064412;28;20262;-65
2022/08/07 01:37:05;;;;;;;0.50;0.50;;;;;;;27.70;38.63;94825.72;5047815;28;20200;-67
2022/08/07 01:39:38;;;;;;;0.67;0.67;;;;;;;27.72;38.88;94838.81;5047855;28;20193;-68
2022/08/07 01:42:22;;;;;;;0.93;0.93;;;;;;;27.71;39.21;94827.28;5049403;28;20767;-67
2022/08/07 01:45:09;;;;;;;0.60;0.60;;;;;;;27.68;38.75;94827.25;5037344;28;20719;-65
2022/08/07 01:47:49;;;;;;;0.50;0.50;;;;;;;27.53;40.04;94853.19;5050684;28;20807;-66
2022/08/07 01:50:38;;;;;;;0.77;0.77;;;;;;;27.53;40.18;94857.78;5051383;28;20258;-66
2022/08/07 01:53:11;;;;;;;0.90;0.90;;;;;;;27.58;40.50;94876.31;5050652;28;20204;-68
2022/08/07 01:56:02;;;;;;;0.57;0.53;;;;;;;27.34;40.09;94906.31;5041208;28;20234;-66
2022/08/07 01:58:38;;;;;;;0.33;0.33;;;;;;;27.32;40.29;94913.97;5036441;28;20205;-65
2022/08/07 02:01:12;;;;;;;0.40;0.40;;;;;;;27.48;39.60;94915.38;5038834;28;20561;-66
2022/08/07 02:04:10;;;;;;;3.23;1.27;;;;;;;27.49;39.74;94916.16;5033093;28;20193;-68
2022/08/07 02:06:41;;;;;;;1.27;0.60;;;;;;;27.41;40.07;94919.91;5050847;28;20204;-64
2022/08/07 02:09:16;;;;;;;0.50;0.50;;;;;;;27.48;39.73;94920.78;5036511;28;20274;-67
2022/08/07 02:12:16;;;;;;;0.30;0.30;;;;;;;27.48;40.27;94936.16;5050506;28;20207;-65
2022/08/07 02:14:54;;;;;;;0.57;0.57;;;;;;;27.35;40.51;94926.72;5050523;28;20192;-68
2022/08/07 02:17:36;;;;;;;0.50;0.50;;;;;;;27.40;41.05;94934.50;5051663;28;20191;-66
2022/08/07 02:20:07;;;;;;;1.43;1.23;;;;;;;27.18;42.25;94929.84;5040448;28;20205;-67
2022/08/07 02:22:53;;;;;;;0.60;0.50;;;;;;;27.35;43.40;94932.09;5048933;28;20196;-67
2022/08/07 02:25:23;;;;;;;1.13;0.87;;;;;;;27.39;44.00;94922.19;5050348;28;20242;-66
2022/08/07 02:28:14;;;;;;;1.03;0.90;;;;;;;26.78;45.38;94914.97;5037454;28;20307;-67
2022/08/07 02:30:55;;;;;;;2.03;1.07;;;;;;;27.18;44.95;94900.28;5050401;28;20208;-68
2022/08/07 02:33:24;;;;;;;0.43;0.43;;;;;;;25.80;48.59;94905.63;5049975;28;20197;-67
2022/08/07 02:36:15;;;;;;;0.30;0.30;;;;;;;26.39;47.93;94886.56;5050037;28;20349;-66
2022/08/07 02:38:57;;;;;;;0.60;0.50;;;;;;;26.28;48.80;94890.94;5049870;28;20227;-65
2022/08/07 02:41:28;;;;;;;2.20;0.90;;;;;;;25.52;51.63;94878.19;5051137;28;20295;-66
2022/08/07 02:44:02;;;;;;;0.30;0.30;;;;;;;24.89;52.05;94863.25;5049627;28;20266;-64
2022/08/07 02:46:34;;;;;;;0.60;0.60;;;;;;;24.66;51.86;94865.72;5049521;28;20694;-68
2022/08/07 02:49:04;;;;;;;1.80;0.93;;;;;;;25.19;51.47;94863.56;5049707;28;20720;-66
2022/08/07 02:51:35;;;;;;;0.50;0.50;;;;;;;25.22;51.04;94857.53;5035698;28;20280;-65
2022/08/07 02:54:21;;;;;;;0.20;0.20;;;;;;;25.16;50.73;94853.56;5044827;28;20193;-65
2022/08/07 02:56:54;;;;;;;0.43;0.40;;;;;;;25.56;49.34;94848.75;5044373;28;20687;-67
2022/08/07 02:59:24;;;;;;;2.70;1.10;;;;;;;25.53;49.50;94849.47;5049785;28;21067;-66
2022/08/07 03:01:58;;;;;;;0.67;0.67;;;;;;;25.90;48.63;94858.69;5049394;28;20215;-65
2022/08/07 03:04:29;;;;;;;0.67;0.67;;;;;;;26.10;47.90;94846.06;5049399;28;20628;-66
2022/08/07 03:06:59;;;;;;;0.63;0.63;;;;;;;25.57;49.05;94845.72;5035582;28;20682;-66
2022/08/07 03:09:39;;;;;;;0.73;0.73;;;;;;;25.96;48.39;94846.53;5041616;28;20208;-65
2022/08/07 03:12:12;;;;;;;0.37;0.37;;;;;;;26.50;46.94;94839.16;5049280;28;20726;-65
2022/08/07 03:15:05;;;;;;;0.90;0.90;;;;;;;26.67;47.08;94840.59;5066055;28;20740;-67
2022/08/07 03:17:36;;;;;;;0.20;0.20;;;;;;;26.82;47.53;94840.50;5049133;28;20287;-68
2022/08/07 03:20:23;;;;;;;1.20;0.83;;;;;;;26.82;48.22;94845.88;5049443;28;20211;-65
2022/08/07 03:22:53;;;;;;;0.60;0.60;;;;;;;26.93;47.38;94859.53;5049290;28;20273;-66
2022/08/07 03:25:22;;;;;;;0.67;0.67;;;;;;;26.61;49.04;94858.94;5039417;28;20193;-65
2022/08/07 03:27:56;;;;;;;0.73;0.73;;;;;;;26.53;49.76;94853.81;5033572;28;20220;-65
2022/08/07 03:30:36;;;;;;;0.73;0.63;;;;;;;26.69;49.42;94855.28;5050947;28;20206;-63
2022/08/07 03:33:05;;;;;;;1.20;0.90;;;;;;;26.79;49.29;94854.69;5030454;28;20197;-65
2022/08/07 03:35:38;;;;;;;1.17;0.87;;;;;;;26.81;49.74;94854.31;5041335;28;20208;-64
2022/08/07 03:38:19;;;;;;;1.23;1.13;;;;;;;27.05;48.90;94859.34;5043315;28;20200;-66
2022/08/07 03:40:59;;;;;;;0.43;0.43;;;;;;;26.97;49.35;94858.44;5049285;28;20201;-65
2022/08/07 03:43:28;;;;;;;1.27;0.63;;;;;;;26.90;50.24;94858.31;5035653;28;20601;-66
2022/08/07 03:46:02;;;;;;;0.37;0.37;;;;;;;26.83;50.45;94855.53;5049116;28;20327;-67
2022/08/07 03:48:38;;;;;;;0.73;0.73;;;;;;;26.98;50.05;94860.00;5035939;28;20226;-67
2022/08/07 03:51:28;;;;;;;0.97;0.87;;;;;;;27.12;49.54;94869.41;5048694;28;20204;-68
2022/08/07 03:54:13;;;;;;;0.87;0.73;;;;;;;27.15;50.11;94879.47;5048393;28;20759;-67
2022/08/07 03:57:03;;;;;;;0.90;0.90;;;;;;;27.17;49.74;94869.88;5048334;28;20219;-67
2022/08/07 03:59:35;;;;;;;0.30;0.30;;;;;;;27.27;49.42;94865.81;5048479;28;20597;-67
2022/08/07 04:02:13;;;;;;;0.30;0.30;;;;;;;27.32;49.12;94868.22;5048080;28;20687;-66
2022/08/07 04:04:41;;;;;;;0.83;0.57;;;;;;;27.13;49.37;94874.47;5048353;28;20291;-66
2022/08/07 04:07:11;;;;;;;1.20;1.10;;;;;;;26.11;51.68;94875.28;5048534;28;20232;-65
2022/08/07 04:09:46;;;;;;;0.30;0.30;;;;;;;26.56;50.87;94875.38;5048319;28;20259;-65
2022/08/07 04:12:21;;;;;;;1.17;0.67;;;;;;;27.13;49.48;94873.69;5031929;28;20197;-66
2022/08/07 04:14:57;;;;;;;1.07;0.67;;;;;;;27.07;49.50;94877.78;5039136;28;20749;-67
2022/08/07 04:17:28;;;;;;;1.33;1.23;;;;;;;27.20;49.67;94882.63;5049432;28;20207;-67
2022/08/07 04:20:15;;;;;;;0.97;0.87;;;;;;;27.01;49.36;94888.88;5048749;28;20301;-64
2022/08/07 04:22:42;;;;;;;0.73;0.73;;;;;;;26.99;48.85;94883.06;5048366;28;20196;-63
2022/08/07 04:25:24;;;;;;;1.57;1.47;;;;;;;26.96;49.24;94883.78;5048161;28;20200;-69
2022/08/07 04:27:58;;;;;;;4.80;1.47;;;;;;;26.68;50.10;94885.97;5048128;28;20239;-66
2022/08/07 04:30:28;;;;;;;2.10;1.90;;;;;;;26.61;50.94;94888.50;5048304;28;20205;-65
2022/08/07 04:33:20;;;;;;;0.67;0.67;;;;;;;26.87;50.32;94885.94;5048370;28;20192;-69
2022/08/07 04:35:50;;;;;;;4.67;0.87;;;;;;;27.02;49.30;94886.97;5034860;28;20608;-66
2022/08/07 04:38:24;;;;;;;3.47;0.60;;;;;;;26.87;49.17;94907.44;5034913;28;20292;-64
2022/08/07 04:40:52;;;;;;;1.43;1.33;;;;;;;27.30;48.10;94892.78;5048142;28;20254;-69
2022/08/07 04:43:35;;;;;;;0.83;0.83;;;;;;;26.88;48.57;94908.22;5034689;28;20590;-66
2022/08/07 04:46:41;;;;;;;0.87;0.87;;;;;;;26.98;49.13;94905.72;5060845;28;20196;-65
2022/08/07 04:50:11;;;;;;;3.17;1.37;;;;;;;27.14;48.52;94902.91;5033829;28;20225;-64
2022/08/07 04:53:07;;;;;;;2.20;1.07;;;;;;;27.03;48.89;94905.41;5043228;28;20211;-63
2022/08/07 04:55:56;;;;;;;2.93;2.00;;;;;;;27.19;48.93;94901.84;5037866;28;20199;-66
2022/08/07 04:58:50;;;;;;;0.57;0.50;;;;;;;27.32;49.36;94911.28;5047786;28;20196;-67
2022/08/07 05:01:43;;;;;;;0.77;0.77;;;;;;;27.66;48.75;94921.06;5037226;28;20189;-66
2022/08/07 05:04:21;;;;;;;1.63;1.27;;;;;;;27.60;47.83;94914.41;5041833;28;20193;-66
2022/08/07 05:07:05;;;;;;;0.90;0.90;;;;;;;27.98;47.04;94911.53;5028195;28;20263;-65
2022/08/07 05:10:10;;;;;;;0.70;0.70;;;;;;;28.04;47.39;94920.84;5036800;28;20231;-67
2022/08/07 05:13:05;;;;;;;0.93;0.83;;;;;;;28.25;46.54;94926.50;5047639;28;20205;-66
2022/08/07 05:15:53;;;;;;;0.40;0.40;;;;;;;27.89;47.51;94930.63;5035070;28;20189;-66
2022/08/07 05:18:21;;;;;;;0.47;0.47;;;;;;;28.36;45.63;94926.63;5041816;28;20201;-67
2022/08/07 05:20:51;;;;;;;0.50;0.50;;;;;;;28.14;45.70;94920.19;5049846;28;20200;-67
2022/08/07 05:23:37;;;;;;;1.27;1.17;;;;;;;28.39;46.07;94915.91;5051572;28;20197;-67
2022/08/07 05:26:09;;;;;;;0.70;0.70;;;;;;;28.19;46.23;94927.19;5051368;28;20196;-63
2022/08/07 05:28:54;;;;;;;0.60;0.60;;;;;;;28.31;46.05;94935.84;5041004;28;20287;-65
2022/08/07 05:31:28;;;;;;;0.67;0.67;;;;;;;28.64;45.16;94933.19;5050585;28;20204;-64
2022/08/07 05:34:13;;;;;;;0.80;0.80;;;;;;;28.54;45.85;94928.44;5051527;28;20295;-65
2022/08/07 05:36:50;;;;;;;1.23;1.13;;;;;;;28.65;44.80;94929.31;5051255;28;20204;-69
2022/08/07 05:39:45;;;;;;;0.73;0.73;;;;;;;28.55;45.47;94940.00;5036983;28;20250;-66
2022/08/07 05:42:33;;;;;;;0.50;0.50;;;;;;;28.76;44.51;94935.59;5039543;28;20201;-67
2022/08/07 05:45:07;;;;;;;0.60;0.60;;;;;;;28.75;45.44;94944.88;5037115;28;20263;-64
2022/08/07 05:47:59;;;;;;;0.60;0.60;;;;;;;28.81;44.64;94946.06;5051049;28;20201;-67
2022/08/07 05:50:40;;;;;;;0.73;0.70;;;;;;;28.99;43.84;94955.09;5051200;28;20204;-66
2022/08/07 05:53:11;;;;;;;1.17;0.63;;;;;;;28.68;45.54;94960.97;5050928;28;20709;-67
2022/08/07 05:55:58;;;;;;;1.00;1.00;;;;;;;28.86;44.73;94961.94;5050760;28;20196;-65
2022/08/07 05:58:34;;;;;;;2.27;1.03;;;;;;;28.49;45.83;94957.59;5036721;28;20208;-64
2022/08/07 06:01:07;;;;;;;0.47;0.47;;;;;;;29.11;44.37;94972.19;5050742;28;20867;-68
2022/08/07 06:03:42;;;;;;;0.43;0.43;;;;;;;29.21;43.67;94966.16;5050049;28;20201;-66
2022/08/07 06:06:26;;;;;;;0.70;0.70;;;;;;;29.30;43.30;94964.72;5031107;28;20656;-66
2022/08/07 06:09:00;;;;;;;1.13;1.03;;;;;;;29.57;42.81;94968.00;5044511;28;20232;-65
2022/08/07 06:11:33;;;;;;;1.37;0.97;;;;;;;29.49;43.26;94972.56;5031978;28;20232;-65
2022/08/07 06:14:02;;;;;;;0.50;0.50;;;;;;;29.58;42.75;94964.19;5048964;28;20214;-66
2022/08/07 06:16:50;;;;;;;1.33;1.03;;;;;;;29.57;43.08;94955.28;5051917;28;20240;-66
2022/08/07 06:19:32;;;;;;;0.70;0.70;;;;;;;29.75;42.41;94968.94;5030781;28;20684;-70
2022/08/07 06:22:19;;;;;;;2.30;0.90;;;;;;;29.55;43.87;94962.22;5050025;28;20250;-64
2022/08/07 06:25:08;;;;;;;1.00;0.93;;;;;;;29.72;43.23;94964.31;5026726;28;20192;-64
2022/08/07 06:27:37;;;;;;;6.50;2.47;;;;;;;29.80;42.75;94961.28;5049961;28;20647;-66
2022/08/07 06:30:24;;;;;;;0.50;0.50;;;;;;;30.03;42.78;94966.47;5050127;28;20740;-65
2022/08/07 06:33:05;;;;;;;1.80;1.70;;;;;;;30.13;42.34;94979.25;5045180;28;20682;-67
2022/08/07 06:35:43;;;;;;;1.17;0.83;;;;;;;29.81;42.50;94967.47;5030678;28;20671;-66
2022/08/07 06:38:30;;;;;;;0.73;0.67;;;;;;;29.84;43.34;94972.09;5035037;28;20221;-65
2022/08/07 06:41:00;;;;;;;0.60;0.60;;;;;;;29.96;43.15;94963.72;5045446;28;20231;-64
2022/08/07 06:43:34;;;;;;;0.53;0.53;;;;;;;30.18;42.31;94964.63;5033211;28;20204;-65
2022/08/07 06:46:12;;;;;;;1.30;1.17;;;;;;;30.02;40.97;94962.19;5030445;28;20320;-65
2022/08/07 06:48:40;;;;;;;0.93;0.87;;;;;;;30.40;40.44;94971.72;5042612;28;20221;-66
2022/08/07 06:51:19;;;;;;;0.80;0.77;;;;;;;30.49;39.79;94970.19;5045845;28;20591;-68
2022/08/07 06:54:02;;;;;;;0.63;0.63;;;;;;;30.08;40.45;94976.91;5049898;28;20279;-67
2022/08/07 06:56:50;;;;;;;0.73;0.57;;;;;;;29.96;43.87;94968.34;5049677;28;20197;-65
2022/08/07 06:59:26;;;;;;;0.43;0.43;;;;;;;29.80;43.01;94974.78;5051378;28;20214;-66
2022/08/07 07:02:17;;;;;;;0.90;0.47;;;;;;;30.29;41.71;94971.63;5049350;28;20197;-66
2022/08/07 07:05:05;;;;;;;1.23;1.13;;;;;;;30.06;41.58;94965.69;5049680;28;20199;-67
2022/08/07 07:07:32;;;;;;;1.10;1.10;;;;;;;30.72;40.43;94978.03;5050796;28;20223;-67
2022/08/07 07:10:46;;;;;;;2.87;1.63;;;;;;;30.09;41.33;94975.75;5049341;28;20232;-67
2022/08/07 07:13:30;;;;;;;0.73;0.67;;;;;;;30.41;41.02;94973.25;5037012;28;20218;-67
2022/08/07 07:16:20;;;;;;;1.47;1.00;;;;;;;30.13;41.57;94978.50;5037847;28;20199;-67
2022/08/07 07:18:54;;;;;;;1.47;1.00;;;;;;;30.37;41.48;94967.84;5037870;28;20219;-68
2022/08/07 07:21:26;;;;;;;1.33;1.23;;;;;;;30.04;41.56;94969.91;5030923;28;20186;-64
2022/08/07 07:24:15;;;;;;;0.40;0.40;;;;;;;30.16;41.63;94973.09;5044492;28;20247;-67
2022/08/07 07:26:46;;;;;;;0.90;0.90;;;;;;;31.14;39.31;94963.88;5050535;28;20192;-67
2022/08/07 07:29:24;;;;;;;0.73;0.67;;;;;;;31.30;38.44;94969.69;5046655;28;20238;-64
2022/08/07 07:32:12;;;;;;;0.80;0.77;;;;;;;31.11;37.29;94968.13;5038948;28;20664;-67
2022/08/07 07:34:45;;;;;;;0.80;0.80;;;;;;;30.59;36.69;94964.06;5048751;28;20227;-63
2022/08/07 07:37:16;;;;;;;0.37;0.37;;;;;;;30.75;36.75;94969.91;5050508;28;20650;-67
2022/08/07 07:40:07;;;;;;;0.40;0.40;;;;;;;30.85;36.45;94971.94;5030018;28;20216;-67
2022/08/07 07:42:43;;;;;;;0.70;0.70;;;;;;;30.94;36.65;94978.91;5030215;28;20200;-66
2022/08/07 07:45:23;;;;;;;0.80;0.80;;;;;;;30.83;36.95;94973.47;5030281;28;20251;-64
2022/08/07 07:48:14;;;;;;;2.57;1.53;;;;;;;30.92;36.04;94975.78;5047496;28;20678;-71
2022/08/07 07:51:02;;;;;;;4.13;1.80;;;;;;;30.84;36.53;94989.31;5050516;28;20883;-65
2022/08/07 07:53:37;;;;;;;0.87;0.87;;;;;;;30.57;36.80;94984.53;5049870;28;20223;-66
2022/08/07 07:56:21;;;;;;;3.43;1.77;;;;;;;30.98;35.52;94985.88;5040419;28;20216;-65
2022/08/07 07:58:59;;;;;;;0.97;0.97;;;;;;;31.18;35.16;94989.00;5050088;28;20721;-64
2022/08/07 08:01:29;;;;;;;1.47;1.37;;;;;;;30.94;35.82;94995.13;5050435;28;20207;-68
2022/08/07 08:04:18;;;;;;;1.40;1.30;;;;;;;30.75;36.10;94983.44;5049933;28;20676;-67
2022/08/07 08:06:52;;;;;;;0.70;0.70;;;;;;;31.33;35.17;94990.59;5052106;28;20682;-70
2022/08/07 08:09:25;;;;;;;0.73;0.73;;;;;;;31.39;35.86;94992.56;5050197;28;20361;-68
2022/08/07 08:11:56;;;;;;;1.33;1.23;;;;;;;31.19;35.33;94999.47;5037205;28;20278;-67
2022/08/07 08:14:33;;;;;;;1.70;1.53;;;;;;;30.88;36.35;94998.22;5049803;28;20188;-64
2022/08/07 08:17:06;;;;;;;1.60;1.40;;;;;;;31.61;35.39;95001.47;5049660;28;20192;-67
2022/08/07 08:20:01;;;;;;;4.10;1.40;;;;;;;32.11;35.12;94992.22;5041360;28;20694;-67
2022/08/07 08:28:29;;;;;;;0.87;0.87;;;;;;;32.01;34.27;94982.13;5049764;28;20188;-67
2022/08/07 08:31:09;;;;;;;0.57;0.57;;;;;;;31.61;34.38;94990.63;5049510;28;20200;-66
2022/08/07 08:33:42;;;;;;;1.17;0.90;;;;;;;31.93;33.84;94980.63;5049242;28;20219;-66
2022/08/07 08:36:18;;;;;;;2.33;0.50;;;;;;;31.82;34.03;94985.22;5049094;28;20201;-65
2022/08/07 08:38:56;;;;;;;2.30;1.17;;;;;;;31.76;34.43;94989.50;5049428;28;20196;-63
2022/08/07 08:41:33;;;;;;;0.87;0.87;;;;;;;31.70;34.60;94988.31;5035084;28;20223;-62
2022/08/07 08:44:52;;;;;;;0.67;0.67;;;;;;;31.71;34.59;95000.72;5048983;28;20252;-66
2022/08/07 08:47:51;;;;;;;0.30;0.30;;;;;;;32.03;34.47;95000.72;5048969;28;20196;-66
2022/08/07 08:50:32;;;;;;;0.90;0.90;;;;;;;31.92;34.36;95000.72;5029474;28;20230;-64
2022/08/07 08:53:32;;;;;;;0.87;0.87;;;;;;;31.82;34.12;95004.22;5039724;28;20279;-66
2022/08/07 08:56:14;;;;;;;1.50;1.17;;;;;;;31.82;34.07;95001.50;5043499;28;20200;-65
2022/08/07 08:59:04;;;;;;;2.50;1.17;;;;;;;31.85;33.96;94984.44;5053043;28;20227;-63
2022/08/07 09:02:12;;;;;;;1.03;1.03;;;;;;;31.92;33.89;94984.47;5054426;28;20207;-63
2022/08/07 09:05:04;;;;;;;0.77;0.77;;;;;;;32.03;33.29;94985.22;5053569;28;20678;-67
2022/08/07 09:07:42;;;;;;;0.93;0.93;;;;;;;32.43;33.66;94998.34;5053195;28;20315;-67
2022/08/07 09:10:33;;;;;;;0.50;0.50;;;;;;;32.59;33.24;94985.13;5038643;28;20707;-62
2022/08/07 09:13:12;;;;;;;0.90;0.90;;;;;;;33.00;33.44;94973.72;5044978;28;20716;-67
2022/08/07 09:16:07;;;;;;;4.33;1.53;;;;;;;32.85;33.75;94983.09;5048436;28;20755;-66
2022/08/07 09:19:14;;;;;;;0.87;0.87;;;;;;;32.74;34.15;94981.19;5039120;28;20578;-64
2022/08/07 09:22:20;;;;;;;2.40;2.03;;;;;;;32.73;33.94;94970.75;5044797;28;20315;-66
2022/08/07 09:25:16;;;;;;;4.07;3.53;;;;;;;33.43;32.30;94972.31;5053115;28;20290;-67
2022/08/07 09:28:02;;;;;;;1.50;1.33;;;;;;;33.29;31.34;94967.75;5049297;28;20205;-66
2022/08/07 09:30:47;;;;;;;1.50;1.33;;;;;;;32.97;31.71;94950.88;5044601;28;20283;-64
2022/08/07 09:33:46;;;;;;;0.57;0.57;;;;;;;33.48;31.84;94955.63;5039717;28;20192;-67
2022/08/07 09:36:52;;;;;;;0.80;0.80;;;;;;;33.26;32.08;94948.75;5042069;28;20184;-64
2022/08/07 09:39:26;;;;;;;0.40;0.40;;;;;;;33.11;32.13;94945.34;5038240;28;20240;-67
2022/08/07 09:42:31;;;;;;;1.07;1.07;;;;;;;33.59;31.25;94950.88;5042075;28;20282;-66
2022/08/07 09:45:05;;;;;;;2.80;2.50;;;;;;;33.64;30.25;94945.78;5036507;28;20239;-65
2022/08/07 09:48:08;;;;;;;2.00;1.80;;;;;;;33.29;31.86;94946.00;5049220;28;20192;-64
2022/08/07 09:50:54;;;;;;;4.50;1.77;;;;;;;33.65;30.36;94941.09;5031098;28;20241;-67
2022/08/07 09:53:27;;;;;;;10.33;8.87;;;;;;;33.89;30.62;94940.09;5049290;28;20208;-64
2022/08/07 09:56:24;;;;;;;2.60;2.40;;;;;;;34.34;30.61;94949.78;5051328;28;20204;-66
2022/08/07 09:59:52;;;;;;;1.07;1.00;;;;;;;33.76;30.75;94944.50;5036649;28;20192;-66
2022/08/07 10:03:19;;;;;;;0.80;0.80;;;;;;;34.42;29.67;94923.25;5028160;28;20679;-63
2022/08/07 10:06:12;;;;;;;0.90;0.60;;;;;;;34.59;29.51;94925.81;5028128;28;20304;-66
2022/08/07 10:09:09;;;;;;;1.33;1.23;;;;;;;33.95;29.88;94933.09;5036914;28;20250;-63
2022/08/07 10:11:58;;;;;;;1.93;1.23;;;;;;;34.06;28.44;94920.16;5050800;28;20208;-66
2022/08/07 10:15:37;;;;;;;0.43;0.43;;;;;;;34.70;28.88;94926.44;5038915;28;20202;-65
2022/08/07 10:18:36;;;;;;;0.77;0.60;;;;;;;34.97;28.01;94915.59;5038788;28;20206;-65
2022/08/07 10:21:10;;;;;;;0.87;0.50;;;;;;;34.56;28.69;94907.56;5023457;28;20193;-66
2022/08/07 10:24:18;;;;;;;0.90;0.90;;;;;;;34.40;28.72;94907.34;5030930;28;20196;-63
2022/08/07 10:27:04;;;;;;;0.53;0.53;;;;;;;34.91;28.65;94905.56;5039788;28;20232;-65
2022/08/07 10:30:05;;;;;;;0.53;0.53;;;;;;;34.35;29.48;94905.06;5050389;28;20224;-67
2022/08/07 10:32:36;;;;;;;0.90;0.73;;;;;;;34.42;29.42;94913.16;5050236;28;20201;-63
2022/08/07 10:35:34;;;;;;;0.80;0.80;;;;;;;34.58;29.21;94915.34;5040956;28;20664;-65
2022/08/07 10:38:49;;;;;;;1.03;0.87;;;;;;;34.68;28.87;94925.31;5030806;28;20962;-65
2022/08/07 10:41:41;;;;;;;0.93;0.83;;;;;;;35.20;27.15;94923.06;5047213;28;20212;-66
2022/08/07 10:46:59;;;;;;;0.63;0.63;;;;;;;35.53;27.85;94927.63;5107103;27;20341;-66
2022/08/07 10:49:53;;;;;;;1.00;1.00;;;;;;;35.24;27.49;94935.44;5093169;28;20199;-65
2022/08/07 10:52:31;;;;;;;1.13;0.90;;;;;;;35.01;27.78;94921.00;5088479;28;20193;-67
2022/08/07 10:55:20;;;;;;;0.33;0.33;;;;;;;35.08;27.90;94921.69;5097803;28;20183;-67
2022/08/07 10:58:16;;;;;;;0.83;0.83;;;;;;;35.09;28.13;94922.44;5066852;28;20195;-64
2022/08/07 11:01:15;;;;;;;1.20;1.00;;;;;;;34.84;27.60;94921.97;5073726;28;20213;-66
2022/08/07 11:03:58;;;;;;;0.50;0.50;;;;;;;34.51;28.55;94913.47;5085940;28;20248;-66
2022/08/07 11:06:56;;;;;;;0.50;0.50;;;;;;;34.69;28.19;94916.72;5079221;28;20645;-67
2022/08/07 11:09:28;;;;;;;0.97;0.90;;;;;;;34.62;28.88;94921.50;5086852;28;20191;-68
2022/08/07 11:12:21;;;;;;;0.70;0.70;;;;;;;34.64;28.24;94933.53;5087801;28;20708;-63
2022/08/07 11:15:10;;;;;;;1.20;1.10;;;;;;;34.59;28.97;94917.66;5095978;28;20199;-67
2022/08/07 11:17:59;;;;;;;0.73;0.73;;;;;;;34.60;29.39;94913.72;5086546;28;20195;-67
2022/08/07 11:20:44;;;;;;;0.67;0.67;;;;;;;34.48;28.99;94917.00;5086471;28;20195;-64
2022/08/07 11:23:34;;;;;;;3.60;2.33;;;;;;;35.34;28.70;94917.41;5073761;28;20210;-65
2022/08/07 11:26:25;;;;;;;0.57;0.57;;;;;;;34.52;29.30;94917.75;5086455;28;20318;-66
2022/08/07 11:29:06;;;;;;;0.87;0.50;;;;;;;34.44;29.39;94910.00;5086470;28;20203;-65
2022/08/07 11:32:15;;;;;;;0.80;0.80;;;;;;;33.62;30.84;94925.59;5075179;28;20195;-64
2022/08/07 11:35:02;;;;;;;0.67;0.67;;;;;;;33.78;30.19;94927.81;5078918;28;20203;-64
2022/08/07 11:38:01;;;;;;;2.00;1.53;;;;;;;34.11;29.35;94924.38;5079389;28;20245;-66
2022/08/07 11:40:47;;;;;;;0.33;0.33;;;;;;;33.64;29.94;94928.69;5082694;28;20251;-67
2022/08/07 11:43:23;;;;;;;1.40;0.87;;;;;;;33.32;30.58;94930.88;5075921;28;20202;-65
2022/08/07 11:46:28;;;;;;;0.73;0.67;;;;;;;33.44;30.70;94941.25;5093076;28;20633;-62
2022/08/07 11:49:16;;;;;;;0.57;0.57;;;;;;;32.87;31.77;94940.81;5084748;28;20202;-64
2022/08/07 11:52:25;;;;;;;1.57;1.33;;;;;;;32.90;31.69;94934.59;5065595;28;20188;-63
2022/08/07 11:55:19;;;;;;;0.80;0.80;;;;;;;33.43;31.61;94935.03;5074579;28;20214;-67
2022/08/07 11:58:20;;;;;;;3.40;1.17;;;;;;;33.68;31.41;94935.66;5063533;28;20200;-65
2022/08/07 12:01:17;;;;;;;0.40;0.40;;;;;;;33.43;30.77;94934.28;5059733;28;20192;-66
2022/08/07 12:04:05;;;;;;;0.67;0.67;;;;;;;33.92;30.66;94933.09;5071730;28;20252;-65
2022/08/07 12:06:42;;;;;;;0.70;0.70;;;;;;;33.80;31.27;94937.09;5071616;28;20640;-66
2022/08/07 12:09:31;;;;;;;1.40;1.30;;;;;;;34.26;30.78;94926.56;5057874;28;20669;-66
2022/08/07 12:11:58;;;;;;;0.77;0.60;;;;;;;32.87;32.05;94945.44;5071923;28;20199;-65
2022/08/07 12:14:43;;;;;;;1.17;1.10;;;;;;;33.30;31.05;94942.09;5065207;28;20208;-62
2022/08/07 12:17:27;;;;;;;2.47;1.60;;;;;;;34.14;30.77;94937.94;5067620;28;20666;-64
2022/08/07 12:20:22;;;;;;;7.60;3.60;;;;;;;33.81;31.20;94938.66;5081474;28;20197;-63
2022/08/07 12:23:24;;;;;;;1.43;1.33;;;;;;;34.52;30.95;94928.63;5072758;28;20214;-62
2022/08/07 12:26:29;;;;;;;0.63;0.50;;;;;;;34.08;31.12;94925.97;5071858;28;20210;-63
2022/08/07 12:29:34;;;;;;;0.30;0.30;;;;;;;35.13;30.62;94923.19;5058507;28;20543;-65
2022/08/07 12:32:19;;;;;;;0.53;0.53;;;;;;;34.60;30.94;94913.72;5051155;28;20205;-62
2022/08/07 12:34:49;;;;;;;0.67;0.67;;;;;;;34.69;31.07;94905.84;5065789;28;20193;-62
2022/08/07 12:37:24;;;;;;;0.60;0.60;;;;;;;34.72;31.09;94910.47;5065195;28;20268;-65
2022/08/07 12:40:15;;;;;;;1.67;0.97;;;;;;;35.16;30.19;94903.28;5059995;28;20192;-63
2022/08/07 12:43:05;;;;;;;0.90;0.90;;;;;;;35.17;30.13;94896.63;5073063;28;20234;-63
2022/08/07 12:45:51;;;;;;;2.60;1.77;;;;;;;35.32;29.26;94906.13;5061475;28;20240;-65
2022/08/07 12:48:51;;;;;;;1.20;0.70;;;;;;;35.46;28.96;94897.75;5069569;28;20571;-64
2022/08/07 12:51:30;;;;;;;0.47;0.47;;;;;;;35.14;28.35;94909.16;5071720;28;20191;-64
2022/08/07 12:54:45;;;;;;;0.87;0.87;;;;;;;34.71;29.70;94908.94;5071740;28;20884;-63
2022/08/07 12:57:26;;;;;;;1.33;1.23;;;;;;;35.14;29.32;94902.91;5071295;28;20200;-64